sensor_id;sensor_type;location;lat;lon;timestamp;temperature;humidity
9790;DHT22;4934;50.852;8.098;2023-02-28T00:01:13;-2.80;99.90
9790;DHT22;4934;50.852;8.098;2023-02-28T00:03:39;-2.70;99.90
9790;DHT22;4934;50.852;8.098;2023-02-28T00:06:06;-2.70;99.90
9790;DHT22;4934;50.852;8.098;2023-02-28T00:08:32;-2.60;99.90
9790;DHT22;4934;50.852;8.098;2023-02-28T00:11:07;-2.50;99.90
9790;DHT22;4934;50.852;8.098;2023-02-28T00:13:38;-2.60;99.90
9790;DHT22;4934;50.852;8.098;2023-02-28T00:16:06;-2.60;99.90
9790;DHT22;4934;50.852;8.098;2023-02-28T00:18:32;-2.60;99.90
9790;DHT22;4934;50.852;8.098;2023-02-28T00:20:59;-2.60;99.90
9790;DHT22;4934;50.852;8.098;2023-02-28T00:23:25;-2.70;99.90
9790;DHT22;4934;50.852;8.098;2023-02-28T00:25:51;-2.70;99.90
9790;DHT22;4934;50.852;8.098;2023-02-28T00:28:17;-2.90;99.90
9790;DHT22;4934;50.852;8.098;2023-02-28T00:30:43;-3.00;99.90
9790;DHT22;4934;50.852;8.098;2023-02-28T00:33:09;-3.10;99.90
9790;DHT22;4934;50.852;8.098;2023-02-28T00:35:35;-3.20;99.90
9790;DHT22;4934;50.852;8.098;2023-02-28T00:38:01;-3.20;99.90
9790;DHT22;4934;50.852;8.098;2023-02-28T00:40:27;-3.20;99.90
9790;DHT22;4934;50.852;8.098;2023-02-28T00:42:52;-3.30;99.90
9790;DHT22;4934;50.852;8.098;2023-02-28T00:45:18;-3.30;99.90
9790;DHT22;4934;50.852;8.098;2023-02-28T00:47:44;-3.30;99.90
9790;DHT22;4934;50.852;8.098;2023-02-28T00:50:12;-3.30;99.90
9790;DHT22;4934;50.852;8.098;2023-02-28T00:52:37;-3.40;99.90
9790;DHT22;4934;50.852;8.098;2023-02-28T00:55:04;-3.30;99.90
9790;DHT22;4934;50.852;8.098;2023-02-28T00:57:29;-3.40;99.90
9790;DHT22;4934;50.852;8.098;2023-02-28T00:59:55;-3.50;99.90
9790;DHT22;4934;50.852;8.098;2023-02-28T01:02:22;-3.60;99.90
9790;DHT22;4934;50.852;8.098;2023-02-28T01:04:48;-3.70;99.90
9790;DHT22;4934;50.852;8.098;2023-02-28T01:07:14;-3.70;99.90
9790;DHT22;4934;50.852;8.098;2023-02-28T01:09:40;-3.80;99.90
9790;DHT22;4934;50.852;8.098;2023-02-28T01:12:07;-3.80;99.90
9790;DHT22;4934;50.852;8.098;2023-02-28T01:14:34;-3.80;99.90
9790;DHT22;4934;50.852;8.098;2023-02-28T01:17:00;-3.90;99.90
9790;DHT22;4934;50.852;8.098;2023-02-28T01:19:26;-3.90;99.90
9790;DHT22;4934;50.852;8.098;2023-02-28T01:21:51;-3.80;99.90
9790;DHT22;4934;50.852;8.098;2023-02-28T01:24:17;-3.80;99.90
9790;DHT22;4934;50.852;8.098;2023-02-28T01:26:42;-3.60;99.90
9790;DHT22;4934;50.852;8.098;2023-02-28T01:29:08;-3.50;99.90
9790;DHT22;4934;50.852;8.098;2023-02-28T01:31:34;-3.60;99.90
9790;DHT22;4934;50.852;8.098;2023-02-28T01:34:00;-3.40;99.90
9790;DHT22;4934;50.852;8.098;2023-02-28T01:36:25;-3.40;99.90
9790;DHT22;4934;50.852;8.098;2023-02-28T01:38:51;-3.30;99.90
9790;DHT22;4934;50.852;8.098;2023-02-28T01:41:24;-3.30;99.90
9790;DHT22;4934;50.852;8.098;2023-02-28T01:43:57;-3.10;99.90
9790;DHT22;4934;50.852;8.098;2023-02-28T01:46:23;-3.00;99.90
9790;DHT22;4934;50.852;8.098;2023-02-28T01:51:29;-2.90;99.90
9790;DHT22;4934;50.852;8.098;2023-02-28T01:54:01;-2.90;99.90
9790;DHT22;4934;50.852;8.098;2023-02-28T01:56:30;-2.70;99.90
9790;DHT22;4934;50.852;8.098;2023-02-28T01:58:57;-2.60;99.90
9790;DHT22;4934;50.852;8.098;2023-02-28T02:01:24;-2.60;99.90
9790;DHT22;4934;50.852;8.098;2023-02-28T02:03:54;-2.50;99.90
9790;DHT22;4934;50.852;8.098;2023-02-28T02:06:27;-2.50;99.90
9790;DHT22;4934;50.852;8.098;2023-02-28T02:08:55;-2.40;99.90
9790;DHT22;4934;50.852;8.098;2023-02-28T02:11:22;-2.40;99.90
9790;DHT22;4934;50.852;8.098;2023-02-28T02:17:01;-2.30;99.90
9790;DHT22;4934;50.852;8.098;2023-02-28T02:23:02;-2.50;99.90
9790;DHT22;4934;50.852;8.098;2023-02-28T02:25:43;-2.60;99.90
9790;DHT22;4934;50.852;8.098;2023-02-28T02:31:54;-2.60;99.90
9790;DHT22;4934;50.852;8.098;2023-02-28T02:39:40;-2.70;99.90
9790;DHT22;4934;50.852;8.098;2023-02-28T02:42:15;-2.80;99.90
9790;DHT22;4934;50.852;8.098;2023-02-28T02:44:53;-2.80;99.90
9790;DHT22;4934;50.852;8.098;2023-02-28T02:47:24;-2.90;99.90
9790;DHT22;4934;50.852;8.098;2023-02-28T02:49:52;-3.10;99.90
9790;DHT22;4934;50.852;8.098;2023-02-28T02:52:23;-3.10;99.90
9790;DHT22;4934;50.852;8.098;2023-02-28T02:54:52;-3.20;99.90
9790;DHT22;4934;50.852;8.098;2023-02-28T02:57:24;-3.20;99.90
9790;DHT22;4934;50.852;8.098;2023-02-28T02:59:52;-3.20;99.90
9790;DHT22;4934;50.852;8.098;2023-02-28T03:02:20;-3.30;99.90
9790;DHT22;4934;50.852;8.098;2023-02-28T03:04:56;-3.40;99.90
9790;DHT22;4934;50.852;8.098;2023-02-28T03:07:26;-3.50;99.90
9790;DHT22;4934;50.852;8.098;2023-02-28T03:09:54;-3.60;99.90
9790;DHT22;4934;50.852;8.098;2023-02-28T03:12:20;-3.70;99.90
9790;DHT22;4934;50.852;8.098;2023-02-28T03:15:03;-3.80;99.90
9790;DHT22;4934;50.852;8.098;2023-02-28T03:17:47;-3.80;99.90
9790;DHT22;4934;50.852;8.098;2023-02-28T03:20:25;-3.90;99.90
9790;DHT22;4934;50.852;8.098;2023-02-28T03:23:17;-3.90;99.90
9790;DHT22;4934;50.852;8.098;2023-02-28T03:25:59;-3.90;99.90
9790;DHT22;4934;50.852;8.098;2023-02-28T03:31:19;-3.70;99.90
9790;DHT22;4934;50.852;8.098;2023-02-28T03:33:51;-3.70;99.90
9790;DHT22;4934;50.852;8.098;2023-02-28T03:36:25;-3.80;99.90
9790;DHT22;4934;50.852;8.098;2023-02-28T03:39:04;-3.80;99.90
9790;DHT22;4934;50.852;8.098;2023-02-28T03:41:43;-3.80;99.90
9790;DHT22;4934;50.852;8.098;2023-02-28T03:44:17;-3.90;99.90
9790;DHT22;4934;50.852;8.098;2023-02-28T03:46:49;-4.00;99.90
9790;DHT22;4934;50.852;8.098;2023-02-28T03:52:28;-4.20;99.90
9790;DHT22;4934;50.852;8.098;2023-02-28T03:55:00;-4.20;99.90
9790;DHT22;4934;50.852;8.098;2023-02-28T03:57:40;-4.30;99.90
9790;DHT22;4934;50.852;8.098;2023-02-28T04:00:19;-4.40;99.90
9790;DHT22;4934;50.852;8.098;2023-02-28T04:02:46;-4.50;99.90
9790;DHT22;4934;50.852;8.098;2023-02-28T04:05:19;-4.50;99.90
9790;DHT22;4934;50.852;8.098;2023-02-28T04:07:44;-4.60;99.90
9790;DHT22;4934;50.852;8.098;2023-02-28T04:10:11;-4.70;99.90
9790;DHT22;4934;50.852;8.098;2023-02-28T04:12:37;-4.70;99.90
9790;DHT22;4934;50.852;8.098;2023-02-28T04:15:03;-4.70;99.90
9790;DHT22;4934;50.852;8.098;2023-02-28T04:17:28;-4.70;99.90
9790;DHT22;4934;50.852;8.098;2023-02-28T04:19:54;-4.70;99.90
9790;DHT22;4934;50.852;8.098;2023-02-28T04:22:22;-4.70;99.90
9790;DHT22;4934;50.852;8.098;2023-02-28T04:24:51;-4.80;99.90
9790;DHT22;4934;50.852;8.098;2023-02-28T04:27:16;-4.80;99.90
9790;DHT22;4934;50.852;8.098;2023-02-28T04:29:42;-4.90;99.90
9790;DHT22;4934;50.852;8.098;2023-02-28T04:32:10;-4.90;99.90
9790;DHT22;4934;50.852;8.098;2023-02-28T04:34:36;-4.90;99.90
9790;DHT22;4934;50.852;8.098;2023-02-28T04:37:02;-4.90;99.90
9790;DHT22;4934;50.852;8.098;2023-02-28T04:39:28;-5.00;99.90
9790;DHT22;4934;50.852;8.098;2023-02-28T04:41:55;-5.00;99.90
9790;DHT22;4934;50.852;8.098;2023-02-28T04:44:21;-5.00;99.90
9790;DHT22;4934;50.852;8.098;2023-02-28T04:46:47;-5.10;99.90
9790;DHT22;4934;50.852;8.098;2023-02-28T04:49:13;-5.10;99.90
9790;DHT22;4934;50.852;8.098;2023-02-28T04:51:39;-5.10;99.90
9790;DHT22;4934;50.852;8.098;2023-02-28T04:54:05;-5.10;99.90
9790;DHT22;4934;50.852;8.098;2023-02-28T04:56:31;-5.20;99.90
9790;DHT22;4934;50.852;8.098;2023-02-28T04:58:57;-5.10;99.90
9790;DHT22;4934;50.852;8.098;2023-02-28T05:03:49;-5.20;99.90
9790;DHT22;4934;50.852;8.098;2023-02-28T05:06:15;-5.20;99.90
9790;DHT22;4934;50.852;8.098;2023-02-28T05:08:41;-5.20;99.90
9790;DHT22;4934;50.852;8.098;2023-02-28T05:13:43;-5.20;99.90
9790;DHT22;4934;50.852;8.098;2023-02-28T05:16:09;-5.20;99.90
9790;DHT22;4934;50.852;8.098;2023-02-28T05:18:38;-5.20;99.90
9790;DHT22;4934;50.852;8.098;2023-02-28T05:21:04;-5.30;99.90
9790;DHT22;4934;50.852;8.098;2023-02-28T05:23:29;-5.30;99.90
9790;DHT22;4934;50.852;8.098;2023-02-28T05:25:55;-5.40;99.90
9790;DHT22;4934;50.852;8.098;2023-02-28T05:28:21;-5.40;99.90
9790;DHT22;4934;50.852;8.098;2023-02-28T05:30:47;-5.50;99.90
9790;DHT22;4934;50.852;8.098;2023-02-28T05:33:13;-5.50;99.90
9790;DHT22;4934;50.852;8.098;2023-02-28T05:35:40;-5.50;99.90
9790;DHT22;4934;50.852;8.098;2023-02-28T05:38:06;-5.60;99.90
9790;DHT22;4934;50.852;8.098;2023-02-28T05:40:31;-5.70;99.90
9790;DHT22;4934;50.852;8.098;2023-02-28T05:42:57;-5.70;99.90
9790;DHT22;4934;50.852;8.098;2023-02-28T05:45:23;-5.80;99.90
9790;DHT22;4934;50.852;8.098;2023-02-28T05:47:48;-5.80;99.90
9790;DHT22;4934;50.852;8.098;2023-02-28T05:50:14;-5.80;99.90
9790;DHT22;4934;50.852;8.098;2023-02-28T05:52:40;-5.80;99.90
9790;DHT22;4934;50.852;8.098;2023-02-28T05:55:06;-5.80;99.90
9790;DHT22;4934;50.852;8.098;2023-02-28T05:57:32;-5.90;99.90
9790;DHT22;4934;50.852;8.098;2023-02-28T05:59:57;-5.90;99.90
9790;DHT22;4934;50.852;8.098;2023-02-28T06:02:23;-5.80;99.90
9790;DHT22;4934;50.852;8.098;2023-02-28T06:04:48;-5.80;99.90
9790;DHT22;4934;50.852;8.098;2023-02-28T06:07:14;-5.70;99.90
9790;DHT22;4934;50.852;8.098;2023-02-28T06:09:40;-5.70;99.90
9790;DHT22;4934;50.852;8.098;2023-02-28T06:12:06;-5.70;99.90
9790;DHT22;4934;50.852;8.098;2023-02-28T06:14:34;-5.70;99.90
9790;DHT22;4934;50.852;8.098;2023-02-28T06:17:01;-5.60;99.90
9790;DHT22;4934;50.852;8.098;2023-02-28T06:19:26;-5.50;99.90
9790;DHT22;4934;50.852;8.098;2023-02-28T06:21:53;-5.50;99.90
9790;DHT22;4934;50.852;8.098;2023-02-28T06:24:21;-5.50;99.90
9790;DHT22;4934;50.852;8.098;2023-02-28T06:26:47;-5.50;99.90
9790;DHT22;4934;50.852;8.098;2023-02-28T06:29:12;-5.50;99.90
9790;DHT22;4934;50.852;8.098;2023-02-28T06:31:42;-5.40;99.90
9790;DHT22;4934;50.852;8.098;2023-02-28T06:34:09;-5.40;99.90
9790;DHT22;4934;50.852;8.098;2023-02-28T06:36:38;-5.30;99.90
9790;DHT22;4934;50.852;8.098;2023-02-28T06:39:04;-5.20;99.90
9790;DHT22;4934;50.852;8.098;2023-02-28T06:41:29;-5.20;99.90
9790;DHT22;4934;50.852;8.098;2023-02-28T06:43:55;-5.10;99.90
9790;DHT22;4934;50.852;8.098;2023-02-28T06:46:21;-5.00;99.90
9790;DHT22;4934;50.852;8.098;2023-02-28T06:48:47;-4.90;99.90
9790;DHT22;4934;50.852;8.098;2023-02-28T06:51:15;-4.80;99.90
9790;DHT22;4934;50.852;8.098;2023-02-28T06:53:41;-4.70;99.90
9790;DHT22;4934;50.852;8.098;2023-02-28T06:56:09;-4.70;99.90
9790;DHT22;4934;50.852;8.098;2023-02-28T06:58:35;-4.60;99.90
9790;DHT22;4934;50.852;8.098;2023-02-28T07:01:01;-4.50;99.90
9790;DHT22;4934;50.852;8.098;2023-02-28T07:03:27;-4.50;99.90
9790;DHT22;4934;50.852;8.098;2023-02-28T07:05:53;-4.40;99.90
9790;DHT22;4934;50.852;8.098;2023-02-28T07:08:18;-4.30;99.90
9790;DHT22;4934;50.852;8.098;2023-02-28T07:10:44;-4.10;99.90
9790;DHT22;4934;50.852;8.098;2023-02-28T07:13:10;-4.00;99.90
9790;DHT22;4934;50.852;8.098;2023-02-28T07:15:38;-3.80;99.90
9790;DHT22;4934;50.852;8.098;2023-02-28T07:18:04;-3.70;99.90
9790;DHT22;4934;50.852;8.098;2023-02-28T07:20:30;-3.60;99.90
9790;DHT22;4934;50.852;8.098;2023-02-28T07:22:55;-3.40;99.90
9790;DHT22;4934;50.852;8.098;2023-02-28T07:25:26;-3.20;99.90
9790;DHT22;4934;50.852;8.098;2023-02-28T07:27:52;-3.10;99.90
9790;DHT22;4934;50.852;8.098;2023-02-28T07:30:18;-2.90;99.90
9790;DHT22;4934;50.852;8.098;2023-02-28T07:32:44;-2.70;99.90
9790;DHT22;4934;50.852;8.098;2023-02-28T07:35:09;-2.60;99.90
9790;DHT22;4934;50.852;8.098;2023-02-28T07:37:35;-2.40;99.90
9790;DHT22;4934;50.852;8.098;2023-02-28T07:40:04;-2.30;99.90
9790;DHT22;4934;50.852;8.098;2023-02-28T07:42:34;-2.00;99.90
9790;DHT22;4934;50.852;8.098;2023-02-28T07:44:59;-1.80;99.90
9790;DHT22;4934;50.852;8.098;2023-02-28T07:47:26;-1.70;99.90
9790;DHT22;4934;50.852;8.098;2023-02-28T07:49:51;-1.60;99.90
9790;DHT22;4934;50.852;8.098;2023-02-28T07:52:17;-1.40;99.90
9790;DHT22;4934;50.852;8.098;2023-02-28T07:54:42;-1.30;99.90
9790;DHT22;4934;50.852;8.098;2023-02-28T07:57:08;-1.20;99.90
9790;DHT22;4934;50.852;8.098;2023-02-28T07:59:34;-1.10;99.90
9790;DHT22;4934;50.852;8.098;2023-02-28T08:01:59;-1.10;99.90
9790;DHT22;4934;50.852;8.098;2023-02-28T08:04:25;-1.00;99.90
9790;DHT22;4934;50.852;8.098;2023-02-28T08:06:51;-1.00;99.90
9790;DHT22;4934;50.852;8.098;2023-02-28T08:09:21;-0.90;99.90
9790;DHT22;4934;50.852;8.098;2023-02-28T08:11:47;-0.90;99.90
9790;DHT22;4934;50.852;8.098;2023-02-28T08:14:12;-0.80;99.90
9790;DHT22;4934;50.852;8.098;2023-02-28T08:16:38;-0.70;99.90
9790;DHT22;4934;50.852;8.098;2023-02-28T08:19:04;-0.70;99.90
9790;DHT22;4934;50.852;8.098;2023-02-28T08:21:30;-0.70;99.90
9790;DHT22;4934;50.852;8.098;2023-02-28T08:23:55;-0.60;99.90
9790;DHT22;4934;50.852;8.098;2023-02-28T08:26:22;-0.60;99.90
9790;DHT22;4934;50.852;8.098;2023-02-28T08:28:48;-0.60;99.90
9790;DHT22;4934;50.852;8.098;2023-02-28T08:31:15;-0.50;99.90
9790;DHT22;4934;50.852;8.098;2023-02-28T08:33:42;-0.50;99.90
9790;DHT22;4934;50.852;8.098;2023-02-28T08:36:08;-0.40;99.90
9790;DHT22;4934;50.852;8.098;2023-02-28T08:38:35;-0.40;99.90
9790;DHT22;4934;50.852;8.098;2023-02-28T08:41:04;-0.30;99.90
9790;DHT22;4934;50.852;8.098;2023-02-28T08:43:33;-0.20;99.90
9790;DHT22;4934;50.852;8.098;2023-02-28T08:45:59;-0.30;99.90
9790;DHT22;4934;50.852;8.098;2023-02-28T08:48:25;-0.20;99.90
9790;DHT22;4934;50.852;8.098;2023-02-28T08:53:21;-0.10;99.90
9790;DHT22;4934;50.852;8.098;2023-02-28T08:55:46;-0.10;99.90
9790;DHT22;4934;50.852;8.098;2023-02-28T08:58:12;0.00;99.90
9790;DHT22;4934;50.852;8.098;2023-02-28T09:00:37;0.00;99.90
9790;DHT22;4934;50.852;8.098;2023-02-28T09:03:03;0.10;99.90
9790;DHT22;4934;50.852;8.098;2023-02-28T09:05:29;0.10;99.90
9790;DHT22;4934;50.852;8.098;2023-02-28T09:07:55;0.10;99.90
9790;DHT22;4934;50.852;8.098;2023-02-28T09:10:20;0.10;99.90
9790;DHT22;4934;50.852;8.098;2023-02-28T09:12:46;0.20;99.90
9790;DHT22;4934;50.852;8.098;2023-02-28T09:15:12;0.30;99.90
9790;DHT22;4934;50.852;8.098;2023-02-28T09:17:38;0.30;99.90
9790;DHT22;4934;50.852;8.098;2023-02-28T09:20:04;0.30;99.90
9790;DHT22;4934;50.852;8.098;2023-02-28T09:22:30;0.30;99.90
9790;DHT22;4934;50.852;8.098;2023-02-28T09:24:56;0.50;99.90
9790;DHT22;4934;50.852;8.098;2023-02-28T09:27:22;0.50;99.90
9790;DHT22;4934;50.852;8.098;2023-02-28T09:29:47;0.50;99.90
9790;DHT22;4934;50.852;8.098;2023-02-28T09:32:13;0.50;99.90
9790;DHT22;4934;50.852;8.098;2023-02-28T09:34:38;0.30;99.90
9790;DHT22;4934;50.852;8.098;2023-02-28T09:37:04;0.30;99.90
9790;DHT22;4934;50.852;8.098;2023-02-28T09:39:30;0.50;99.90
9790;DHT22;4934;50.852;8.098;2023-02-28T09:41:56;0.60;99.90
9790;DHT22;4934;50.852;8.098;2023-02-28T09:44:42;0.70;99.90
9790;DHT22;4934;50.852;8.098;2023-02-28T09:47:31;0.80;99.90
9790;DHT22;4934;50.852;8.098;2023-02-28T09:49:59;1.00;99.90
9790;DHT22;4934;50.852;8.098;2023-02-28T09:52:30;1.10;99.90
9790;DHT22;4934;50.852;8.098;2023-02-28T09:55:22;1.20;99.90
9790;DHT22;4934;50.852;8.098;2023-02-28T09:57:54;1.10;99.90
9790;DHT22;4934;50.852;8.098;2023-02-28T10:03:04;1.20;99.90
9790;DHT22;4934;50.852;8.098;2023-02-28T10:05:41;1.30;99.90
9790;DHT22;4934;50.852;8.098;2023-02-28T10:08:18;1.30;99.90
9790;DHT22;4934;50.852;8.098;2023-02-28T10:10:48;1.30;99.90
9790;DHT22;4934;50.852;8.098;2023-02-28T10:15:52;1.50;99.90
9790;DHT22;4934;50.852;8.098;2023-02-28T10:18:23;1.40;99.90
9790;DHT22;4934;50.852;8.098;2023-02-28T10:20:50;1.50;99.90
9790;DHT22;4934;50.852;8.098;2023-02-28T10:23:24;1.60;99.90
9790;DHT22;4934;50.852;8.098;2023-02-28T10:26:14;1.60;99.90
9790;DHT22;4934;50.852;8.098;2023-02-28T10:28:44;1.50;99.90
9790;DHT22;4934;50.852;8.098;2023-02-28T10:31:19;1.30;99.90
9790;DHT22;4934;50.852;8.098;2023-02-28T10:33:45;1.30;99.90
9790;DHT22;4934;50.852;8.098;2023-02-28T10:36:16;1.30;99.90
9790;DHT22;4934;50.852;8.098;2023-02-28T10:38:43;1.30;99.90
9790;DHT22;4934;50.852;8.098;2023-02-28T10:41:11;1.30;99.90
9790;DHT22;4934;50.852;8.098;2023-02-28T10:43:39;1.20;99.90
9790;DHT22;4934;50.852;8.098;2023-02-28T10:48:38;1.40;99.90
9790;DHT22;4934;50.852;8.098;2023-02-28T10:51:08;1.60;99.90
9790;DHT22;4934;50.852;8.098;2023-02-28T10:53:37;1.80;99.90
9790;DHT22;4934;50.852;8.098;2023-02-28T10:58:51;1.90;99.90
9790;DHT22;4934;50.852;8.098;2023-02-28T11:01:23;2.00;99.90
9790;DHT22;4934;50.852;8.098;2023-02-28T11:03:50;1.90;99.90
9790;DHT22;4934;50.852;8.098;2023-02-28T11:06:19;1.90;99.90
9790;DHT22;4934;50.852;8.098;2023-02-28T11:08:51;1.80;99.90
9790;DHT22;4934;50.852;8.098;2023-02-28T11:11:17;1.80;99.90
9790;DHT22;4934;50.852;8.098;2023-02-28T11:13:45;1.80;99.90
9790;DHT22;4934;50.852;8.098;2023-02-28T11:16:12;1.80;99.90
9790;DHT22;4934;50.852;8.098;2023-02-28T11:18:50;1.90;99.90
9790;DHT22;4934;50.852;8.098;2023-02-28T11:21:29;2.00;99.90
9790;DHT22;4934;50.852;8.098;2023-02-28T11:24:02;2.20;99.90
9790;DHT22;4934;50.852;8.098;2023-02-28T11:26:46;2.10;99.90
9790;DHT22;4934;50.852;8.098;2023-02-28T11:29:32;2.20;99.90
9790;DHT22;4934;50.852;8.098;2023-02-28T11:32:13;2.30;99.90
9790;DHT22;4934;50.852;8.098;2023-02-28T11:34:42;2.20;99.90
9790;DHT22;4934;50.852;8.098;2023-02-28T11:37:17;1.90;99.90
9790;DHT22;4934;50.852;8.098;2023-02-28T11:39:44;1.80;99.90
9790;DHT22;4934;50.852;8.098;2023-02-28T11:45:08;1.80;99.90
9790;DHT22;4934;50.852;8.098;2023-02-28T11:50:47;1.90;99.90
9790;DHT22;4934;50.852;8.098;2023-02-28T11:53:37;2.00;99.90
9790;DHT22;4934;50.852;8.098;2023-02-28T11:56:51;2.10;99.90
9790;DHT22;4934;50.852;8.098;2023-02-28T12:04:40;2.60;99.90
9790;DHT22;4934;50.852;8.098;2023-02-28T12:07:21;2.70;99.90
9790;DHT22;4934;50.852;8.098;2023-02-28T12:18:10;2.60;99.90
9790;DHT22;4934;50.852;8.098;2023-02-28T12:23:42;2.70;99.90
9790;DHT22;4934;50.852;8.098;2023-02-28T12:26:29;2.80;99.90
9790;DHT22;4934;50.852;8.098;2023-02-28T12:29:21;2.90;99.90
9790;DHT22;4934;50.852;8.098;2023-02-28T12:34:39;2.60;99.90
9790;DHT22;4934;50.852;8.098;2023-02-28T12:37:21;2.70;99.90
9790;DHT22;4934;50.852;8.098;2023-02-28T12:39:51;2.80;99.90
9790;DHT22;4934;50.852;8.098;2023-02-28T12:42:29;2.80;99.90
9790;DHT22;4934;50.852;8.098;2023-02-28T12:45:02;3.00;99.90
9790;DHT22;4934;50.852;8.098;2023-02-28T12:47:28;3.10;99.90
9790;DHT22;4934;50.852;8.098;2023-02-28T12:50:05;3.10;99.90
9790;DHT22;4934;50.852;8.098;2023-02-28T12:52:42;2.90;99.90
9790;DHT22;4934;50.852;8.098;2023-02-28T12:57:42;2.70;99.90
9790;DHT22;4934;50.852;8.098;2023-02-28T13:00:25;2.70;99.90
9790;DHT22;4934;50.852;8.098;2023-02-28T13:11:24;3.10;99.90
9790;DHT22;4934;50.852;8.098;2023-02-28T13:14:01;3.10;99.90
9790;DHT22;4934;50.852;8.098;2023-02-28T13:16:27;3.00;99.90
9790;DHT22;4934;50.852;8.098;2023-02-28T13:19:09;2.80;99.90
9790;DHT22;4934;50.852;8.098;2023-02-28T13:21:43;2.70;99.90
9790;DHT22;4934;50.852;8.098;2023-02-28T13:24:10;2.60;99.90
9790;DHT22;4934;50.852;8.098;2023-02-28T13:34:30;2.80;99.90
9790;DHT22;4934;50.852;8.098;2023-02-28T13:42:32;3.10;99.90
9790;DHT22;4934;50.852;8.098;2023-02-28T13:47:57;3.30;99.90
9790;DHT22;4934;50.852;8.098;2023-02-28T13:50:30;3.40;99.90
9790;DHT22;4934;50.852;8.098;2023-02-28T13:53:34;3.40;99.90
9790;DHT22;4934;50.852;8.098;2023-02-28T13:56:19;3.40;99.90
9790;DHT22;4934;50.852;8.098;2023-02-28T13:59:23;3.30;99.90
9790;DHT22;4934;50.852;8.098;2023-02-28T14:01:57;3.30;99.90
9790;DHT22;4934;50.852;8.098;2023-02-28T14:04:35;3.40;99.90
9790;DHT22;4934;50.852;8.098;2023-02-28T14:07:06;3.50;99.90
9790;DHT22;4934;50.852;8.098;2023-02-28T14:09:35;3.60;99.90
9790;DHT22;4934;50.852;8.098;2023-02-28T14:12:51;3.50;99.90
9790;DHT22;4934;50.852;8.098;2023-02-28T14:17:56;3.50;99.90
9790;DHT22;4934;50.852;8.098;2023-02-28T14:20:27;3.40;99.90
9790;DHT22;4934;50.852;8.098;2023-02-28T14:26:04;3.50;99.90
9790;DHT22;4934;50.852;8.098;2023-02-28T14:28:50;3.60;99.90
9790;DHT22;4934;50.852;8.098;2023-02-28T14:31:29;3.60;99.90
9790;DHT22;4934;50.852;8.098;2023-02-28T14:36:50;3.70;99.90
9790;DHT22;4934;50.852;8.098;2023-02-28T14:39:21;3.80;99.90
9790;DHT22;4934;50.852;8.098;2023-02-28T14:41:48;3.70;99.50
9790;DHT22;4934;50.852;8.098;2023-02-28T14:44:26;3.60;99.90
9790;DHT22;4934;50.852;8.098;2023-02-28T14:46:57;3.60;99.90
9790;DHT22;4934;50.852;8.098;2023-02-28T14:49:30;3.60;99.90
9790;DHT22;4934;50.852;8.098;2023-02-28T14:52:03;3.70;99.90
9790;DHT22;4934;50.852;8.098;2023-02-28T14:54:31;3.80;99.90
9790;DHT22;4934;50.852;8.098;2023-02-28T14:56:56;3.70;99.90
9790;DHT22;4934;50.852;8.098;2023-02-28T14:59:34;3.80;99.90
9790;DHT22;4934;50.852;8.098;2023-02-28T15:02:16;3.80;99.90
9790;DHT22;4934;50.852;8.098;2023-02-28T15:04:42;4.00;99.90
9790;DHT22;4934;50.852;8.098;2023-02-28T15:07:14;3.90;99.90
9790;DHT22;4934;50.852;8.098;2023-02-28T15:09:41;3.90;99.90
9790;DHT22;4934;50.852;8.098;2023-02-28T15:12:06;3.90;99.90
9790;DHT22;4934;50.852;8.098;2023-02-28T15:14:34;3.70;99.90
9790;DHT22;4934;50.852;8.098;2023-02-28T15:17:09;3.60;99.90
9790;DHT22;4934;50.852;8.098;2023-02-28T15:19:41;3.60;99.90
9790;DHT22;4934;50.852;8.098;2023-02-28T15:22:19;3.60;99.90
9790;DHT22;4934;50.852;8.098;2023-02-28T15:24:50;3.40;99.90
9790;DHT22;4934;50.852;8.098;2023-02-28T15:27:39;3.40;99.90
9790;DHT22;4934;50.852;8.098;2023-02-28T15:30:13;3.50;99.90
9790;DHT22;4934;50.852;8.098;2023-02-28T15:32:41;3.50;99.90
9790;DHT22;4934;50.852;8.098;2023-02-28T15:38:18;3.30;99.90
9790;DHT22;4934;50.852;8.098;2023-02-28T15:40:59;3.20;99.90
9790;DHT22;4934;50.852;8.098;2023-02-28T15:43:32;3.10;99.90
9790;DHT22;4934;50.852;8.098;2023-02-28T15:45:59;3.00;99.90
9790;DHT22;4934;50.852;8.098;2023-02-28T15:48:29;3.10;99.90
9790;DHT22;4934;50.852;8.098;2023-02-28T15:51:01;3.10;99.90
9790;DHT22;4934;50.852;8.098;2023-02-28T15:53:54;3.00;99.90
9790;DHT22;4934;50.852;8.098;2023-02-28T15:56:30;2.90;99.90
9790;DHT22;4934;50.852;8.098;2023-02-28T15:59:07;2.90;99.90
9790;DHT22;4934;50.852;8.098;2023-02-28T16:01:37;2.80;99.90
9790;DHT22;4934;50.852;8.098;2023-02-28T16:04:11;2.80;99.90
9790;DHT22;4934;50.852;8.098;2023-02-28T16:07:04;2.80;99.90
9790;DHT22;4934;50.852;8.098;2023-02-28T16:09:30;2.80;99.90
9790;DHT22;4934;50.852;8.098;2023-02-28T16:11:59;2.70;99.90
9790;DHT22;4934;50.852;8.098;2023-02-28T16:14:27;2.70;99.90
9790;DHT22;4934;50.852;8.098;2023-02-28T16:16:57;2.70;99.90
9790;DHT22;4934;50.852;8.098;2023-02-28T16:19:27;2.60;99.90
9790;DHT22;4934;50.852;8.098;2023-02-28T16:21:52;2.60;99.90
9790;DHT22;4934;50.852;8.098;2023-02-28T16:24:18;2.50;99.90
9790;DHT22;4934;50.852;8.098;2023-02-28T16:26:46;2.50;99.90
9790;DHT22;4934;50.852;8.098;2023-02-28T16:29:27;2.40;99.90
9790;DHT22;4934;50.852;8.098;2023-02-28T16:31:53;2.50;99.90
9790;DHT22;4934;50.852;8.098;2023-02-28T16:34:20;2.40;99.90
9790;DHT22;4934;50.852;8.098;2023-02-28T16:36:49;2.40;99.90
9790;DHT22;4934;50.852;8.098;2023-02-28T16:39:15;2.30;99.90
9790;DHT22;4934;50.852;8.098;2023-02-28T16:41:48;2.20;99.90
9790;DHT22;4934;50.852;8.098;2023-02-28T16:44:26;2.20;99.90
9790;DHT22;4934;50.852;8.098;2023-02-28T16:46:52;2.20;99.90
9790;DHT22;4934;50.852;8.098;2023-02-28T16:49:18;2.10;99.90
9790;DHT22;4934;50.852;8.098;2023-02-28T16:51:44;2.10;99.90
9790;DHT22;4934;50.852;8.098;2023-02-28T16:54:09;2.10;99.90
9790;DHT22;4934;50.852;8.098;2023-02-28T16:56:35;2.10;99.90
9790;DHT22;4934;50.852;8.098;2023-02-28T16:59:02;2.00;99.90
9790;DHT22;4934;50.852;8.098;2023-02-28T17:01:28;2.00;99.90
9790;DHT22;4934;50.852;8.098;2023-02-28T17:03:54;1.90;99.90
9790;DHT22;4934;50.852;8.098;2023-02-28T17:06:26;1.80;99.90
9790;DHT22;4934;50.852;8.098;2023-02-28T17:08:54;1.70;99.90
9790;DHT22;4934;50.852;8.098;2023-02-28T17:11:19;1.50;99.90
9790;DHT22;4934;50.852;8.098;2023-02-28T17:13:46;1.40;99.90
9790;DHT22;4934;50.852;8.098;2023-02-28T17:16:28;1.30;99.90
9790;DHT22;4934;50.852;8.098;2023-02-28T17:18:58;1.20;99.90
9790;DHT22;4934;50.852;8.098;2023-02-28T17:21:24;1.00;99.90
9790;DHT22;4934;50.852;8.098;2023-02-28T17:23:49;0.90;99.90
9790;DHT22;4934;50.852;8.098;2023-02-28T17:26:17;0.90;99.90
9790;DHT22;4934;50.852;8.098;2023-02-28T17:28:46;0.90;99.90
9790;DHT22;4934;50.852;8.098;2023-02-28T17:31:12;0.90;99.90
9790;DHT22;4934;50.852;8.098;2023-02-28T17:33:37;0.70;99.90
9790;DHT22;4934;50.852;8.098;2023-02-28T17:36:03;0.60;99.90
9790;DHT22;4934;50.852;8.098;2023-02-28T17:38:29;0.60;99.90
9790;DHT22;4934;50.852;8.098;2023-02-28T17:40:55;0.60;99.90
9790;DHT22;4934;50.852;8.098;2023-02-28T17:43:26;0.50;99.90
9790;DHT22;4934;50.852;8.098;2023-02-28T17:45:53;0.40;99.90
9790;DHT22;4934;50.852;8.098;2023-02-28T17:48:18;0.40;99.90
9790;DHT22;4934;50.852;8.098;2023-02-28T17:50:44;0.20;99.90
9790;DHT22;4934;50.852;8.098;2023-02-28T17:53:10;0.10;99.90
9790;DHT22;4934;50.852;8.098;2023-02-28T17:55:36;0.10;99.90
9790;DHT22;4934;50.852;8.098;2023-02-28T17:58:03;0.10;99.90
9790;DHT22;4934;50.852;8.098;2023-02-28T18:00:29;-0.10;99.90
9790;DHT22;4934;50.852;8.098;2023-02-28T18:02:55;-0.10;99.90
9790;DHT22;4934;50.852;8.098;2023-02-28T18:05:20;-0.20;99.90
9790;DHT22;4934;50.852;8.098;2023-02-28T18:07:46;-0.40;99.90
9790;DHT22;4934;50.852;8.098;2023-02-28T18:10:15;-0.40;99.90
9790;DHT22;4934;50.852;8.098;2023-02-28T18:12:45;-0.50;99.90